Nearby METAR Reports

 

KCMH - Columbus, Ohio, USA
Distance from station: SW 5mi, 8km
Updated: Mon, 15-Oct-2018 11:51pm EDT
Mostly cloudy
Mostly cloudy
 Wind from WNW
Wind: WNW 6 mph , 9 km/h
Temperature: 43°F , 6°C
Wind Chill: 39°F , 4°C
Dew Point: 37°F , 3°C
Humidity: 81%
Barometer: 30.26 inHg , 1024.7 hPa
Clouds: Mostly cloudy
Visibility: 10 miles , 16 km
Cloud details: Mostly cloudy 25000 ft
2018/10/16 03:51 KCMH 160351Z 29005KT 10SM BKN250 06/03 A3026 RMK AO2 SLP248 T00560028
KOSU - Columbus/St Univ, Ohio, USA
Distance from station: W 14mi, 23km
Updated: Mon, 15-Oct-2018 11:53pm EDT
Clear
Clear
 Wind from WNW
Wind: WNW 5 mph , 7 km/h
Temperature: 41°F , 5°C
Wind Chill: 38°F , 3°C
Dew Point: 36°F , 2°C
Humidity: 81%
Barometer: 30.26 inHg , 1024.7 hPa
Clouds: Clear
Visibility: 10 miles , 16 km
2018/10/16 03:53 KOSU 160353Z AUTO 30004KT 10SM CLR 05/02 A3026 RMK AO2 SLP250 T00500022
 
KLCK - Rickenbacker Ang, Ohio, USA
Distance from station: SSW 17mi, 27km
Updated: Tue, 16-Oct-2018 12:15am EDT
Clear
Clear
 Wind from calm
Wind: Calm
Temperature: 41°F , 5°C
Dew Point: 37°F , 3°C
Humidity: 87%
Barometer: 30.26 inHg , 1024.7 hPa
Clouds: Clear
Visibility: 10 miles , 16 km
2018/10/16 04:15 KLCK 160415Z AUTO 00000KT 10SM CLR 05/03 A3026 RMK AO2 T00510026
KVTA - Newark, Ohio, USA
Distance from station: E 19mi, 30km
Updated: Mon, 15-Oct-2018 11:54pm EDT
Clear
Clear
 Wind from WNW
Wind: WNW 5 mph , 7 km/h
Temperature: 43°F , 6°C
Wind Chill: 40°F , 4°C
Dew Point: 36°F , 2°C
Humidity: 76%
Barometer: 30.26 inHg , 1024.7 hPa
Clouds: Clear
Visibility: 10 miles , 16 km
2018/10/16 03:54 KVTA 160354Z AUTO 30004KT 10SM CLR 06/02 A3026 RMK AO2 SLP247 T00560017
 
KTZR - Columbus/Bolton, Ohio, USA
Distance from station: WSW 20mi, 31km
Updated: Tue, 16-Oct-2018 12:15am EDT
Clear
Clear
 Wind from calm
Wind: Calm
Temperature: 41°F , 5°C
Dew Point: 37°F , 3°C
Humidity: 87%
Barometer: 30.27 inHg , 1025.1 hPa
Clouds: Clear
Visibility: 10 miles , 16 km
2018/10/16 04:15 KTZR 160415Z AUTO 00000KT 10SM CLR 05/03 A3027 RMK AO2 T00470030
KLHQ - Lancaster, Ohio, USA
Distance from station: SSE 22mi, 36km
Updated: Mon, 15-Oct-2018 11:53pm EDT
Clear
Clear
 Wind from W
Wind: W 5 mph , 7 km/h
Temperature: 41°F , 5°C
Wind Chill: 38°F , 3°C
Dew Point: 39°F , 4°C
Humidity: 93%
Barometer: 30.27 inHg , 1025.1 hPa
Clouds: Clear
Visibility: 10 miles , 16 km
2018/10/16 03:53 KLHQ 160353Z AUTO 26004KT 10SM CLR 05/04 A3027 RMK AO2 SLP250 T00500039
 
KDLZ - Delaware, Ohio, USA
Distance from station: NW 23mi, 36km
Updated: Tue, 16-Oct-2018 12:15am EDT
Clear
Clear
 Wind from NNW
Wind: NNW 3 mph , 6 km/h
Temperature: 39°F , 4°C
Dew Point: 32°F , 0°C
Humidity: 75%
Barometer: 30.27 inHg , 1025.1 hPa
Clouds: Clear
Visibility: 10 miles , 16 km
2018/10/16 04:15 KDLZ 160415Z AUTO 33003KT 10SM CLR 04/00 A3027 RMK AO2
K4I3 - Mt Vernon/Knox, Ohio, USA
Distance from station: NE 25mi, 40km
Updated: Tue, 16-Oct-2018 12:15am EDT
Clear
Clear
 Wind from NNW
Wind: NNW 7 mph , 11 km/h
Temperature: 41°F , 5°C
Wind Chill: 36°F , 2°C
Dew Point: 36°F , 2°C
Humidity: 81%
Barometer: 30.26 inHg , 1024.7 hPa
Clouds: Clear
Visibility: 10 miles , 16 km
2018/10/16 04:15 K4I3 160415Z AUTO 34006KT 10SM CLR 05/02 A3026 RMK AO2
 
KMRT - Marysville, Ohio, USA
Distance from station: WNW 30mi, 49km
Updated: Tue, 16-Oct-2018 12:15am EDT
Clear
Clear
 Wind from N
Wind: N 3 mph , 6 km/h
Temperature: 39°F , 4°C
Dew Point: 34°F , 1°C
Humidity: 81%
Barometer: 30.26 inHg , 1024.7 hPa
Clouds: Clear
Visibility: 10 miles , 16 km
2018/10/16 04:15 KMRT 160415Z AUTO 36003KT 10SM CLR 04/01 A3026 RMK AO2 T00440009
KMNN - Marion, Ohio, USA
Distance from station: NNW 41mi, 67km
Updated: Mon, 15-Oct-2018 11:53pm EDT
Clear
Clear
 Wind from N
Wind: N 3 mph , 6 km/h
Temperature: 39°F , 4°C
Dew Point: 32°F , 0°C
Humidity: 75%
Barometer: 30.26 inHg , 1024.7 hPa
Clouds: Clear
Visibility: 10 miles , 16 km
2018/10/16 03:53 KMNN 160353Z AUTO 01003KT 10SM CLR 04/00 A3026 RMK AO2 SLP251 T00390000 TSNO
 
KZZV - Zanesville, Ohio, USA
Distance from station: E 49mi, 79km
Updated: Mon, 15-Oct-2018 11:53pm EDT
Clear
Clear
 Wind from W
Wind: W 5 mph , 7 km/h
Temperature: 45°F , 7°C
Wind Chill: 42°F , 6°C
Dew Point: 37°F , 3°C
Humidity: 76%
Barometer: 30.25 inHg , 1024.4 hPa
Clouds: Clear
Visibility: 10 miles , 16 km
2018/10/16 03:53 KZZV 160353Z AUTO 28004KT 10SM CLR 07/03 A3025 RMK AO2 SLP244 T00670028